logo
Rechercher aéroport 
image banner adimage banner adimage banner ad
image banner ad

LTCS - Sanliurfa Gap

Situé à Sanliurfa, Turkey

ICAO - LTCS, IATA - GNY

Données fournies par Airmate  

Information générale

Coordonnées: N37°27'24" E38°54'29"
Élévation : 2708 feet MSL.
Variation magnétique : 5.5° East
Voir autres Aéroports à Sanliurfa

Données opérationnelles

Special qualification required
Heure actuelle UTC:
Heure actuelle locale:
Météo
METAR: LTCS 242020Z 28008KT 250V310 CAVOK 28/15 Q1007
TAF: TAF LTCS 241640Z 2418/2518 VRB02KT CAVOK BECMG 2510/2512 29012KT
Voir NOTAMs / SUP AIP / TFR affectant cet aéroport [VIEW]
Fréquences de communication: [VIEW]

Pistes:

Identifiant RWYQFULongueur (ft)Largeur (ft)SurfaceLDA (ft)
0442°13123148CONC13123
22222°13123148CONC13123

Coordonnées de l'aéroport

Adresse: Sanliurfa Turkey

Vue satellite de LTCS